sensor_id;sensor_type;location;lat;lon;timestamp;P1;durP1;ratioP1;P2;durP2;ratioP2
8413;SDS011;4244;48.684;9.028;2023-04-20T00:00:03;7.70;;;5.30;;
8413;SDS011;4244;48.684;9.028;2023-04-20T00:02:35;7.40;;;5.40;;
8413;SDS011;4244;48.684;9.028;2023-04-20T00:05:02;8.30;;;5.50;;
8413;SDS011;4244;48.684;9.028;2023-04-20T00:07:33;8.60;;;5.13;;
8413;SDS011;4244;48.684;9.028;2023-04-20T00:10:00;5.37;;;4.87;;
8413;SDS011;4244;48.684;9.028;2023-04-20T00:12:26;7.73;;;5.73;;
8413;SDS011;4244;48.684;9.028;2023-04-20T00:14:51;6.20;;;5.50;;
8413;SDS011;4244;48.684;9.028;2023-04-20T00:17:17;6.57;;;5.37;;
8413;SDS011;4244;48.684;9.028;2023-04-20T00:19:43;5.93;;;5.43;;
8413;SDS011;4244;48.684;9.028;2023-04-20T00:22:10;5.70;;;5.20;;
8413;SDS011;4244;48.684;9.028;2023-04-20T00:24:36;7.93;;;6.50;;
8413;SDS011;4244;48.684;9.028;2023-04-20T00:27:01;6.77;;;6.10;;
8413;SDS011;4244;48.684;9.028;2023-04-20T00:29:27;6.73;;;5.47;;
8413;SDS011;4244;48.684;9.028;2023-04-20T00:31:53;9.60;;;5.63;;
8413;SDS011;4244;48.684;9.028;2023-04-20T00:34:19;10.17;;;5.83;;
8413;SDS011;4244;48.684;9.028;2023-04-20T00:36:44;6.80;;;5.73;;
8413;SDS011;4244;48.684;9.028;2023-04-20T00:39:10;6.20;;;5.33;;
8413;SDS011;4244;48.684;9.028;2023-04-20T00:41:36;6.63;;;6.03;;
8413;SDS011;4244;48.684;9.028;2023-04-20T00:44:01;8.17;;;6.00;;
8413;SDS011;4244;48.684;9.028;2023-04-20T00:46:27;6.33;;;5.73;;
8413;SDS011;4244;48.684;9.028;2023-04-20T00:48:53;7.93;;;5.40;;
8413;SDS011;4244;48.684;9.028;2023-04-20T00:51:19;6.27;;;5.67;;
8413;SDS011;4244;48.684;9.028;2023-04-20T00:53:46;6.87;;;6.17;;
8413;SDS011;4244;48.684;9.028;2023-04-20T00:56:11;6.23;;;5.63;;
8413;SDS011;4244;48.684;9.028;2023-04-20T00:58:38;5.63;;;5.10;;
8413;SDS011;4244;48.684;9.028;2023-04-20T01:01:04;6.10;;;5.60;;
8413;SDS011;4244;48.684;9.028;2023-04-20T01:03:29;7.27;;;6.57;;
8413;SDS011;4244;48.684;9.028;2023-04-20T01:05:56;6.00;;;5.40;;
8413;SDS011;4244;48.684;9.028;2023-04-20T01:08:25;6.57;;;5.83;;
8413;SDS011;4244;48.684;9.028;2023-04-20T01:10:51;7.73;;;5.73;;
8413;SDS011;4244;48.684;9.028;2023-04-20T01:13:18;8.53;;;5.70;;
8413;SDS011;4244;48.684;9.028;2023-04-20T01:15:44;8.50;;;5.97;;
8413;SDS011;4244;48.684;9.028;2023-04-20T01:18:09;7.60;;;6.30;;
8413;SDS011;4244;48.684;9.028;2023-04-20T01:20:35;7.77;;;6.07;;
8413;SDS011;4244;48.684;9.028;2023-04-20T01:23:01;6.97;;;5.80;;
8413;SDS011;4244;48.684;9.028;2023-04-20T01:25:27;6.73;;;5.50;;
8413;SDS011;4244;48.684;9.028;2023-04-20T01:30:43;6.80;;;6.13;;
8413;SDS011;4244;48.684;9.028;2023-04-20T01:33:09;8.50;;;6.23;;
8413;SDS011;4244;48.684;9.028;2023-04-20T01:35:35;7.20;;;5.80;;
8413;SDS011;4244;48.684;9.028;2023-04-20T01:38:00;6.97;;;6.27;;
8413;SDS011;4244;48.684;9.028;2023-04-20T01:40:26;7.13;;;6.43;;
8413;SDS011;4244;48.684;9.028;2023-04-20T01:42:51;5.70;;;5.20;;
8413;SDS011;4244;48.684;9.028;2023-04-20T01:45:17;8.83;;;6.40;;
8413;SDS011;4244;48.684;9.028;2023-04-20T01:47:43;6.97;;;6.27;;
8413;SDS011;4244;48.684;9.028;2023-04-20T01:50:08;5.83;;;5.20;;
8413;SDS011;4244;48.684;9.028;2023-04-20T01:52:34;8.53;;;6.20;;
8413;SDS011;4244;48.684;9.028;2023-04-20T01:55:00;6.53;;;5.80;;
8413;SDS011;4244;48.684;9.028;2023-04-20T01:57:25;9.17;;;6.37;;
8413;SDS011;4244;48.684;9.028;2023-04-20T01:59:51;6.50;;;5.90;;
8413;SDS011;4244;48.684;9.028;2023-04-20T02:02:16;6.63;;;6.03;;
8413;SDS011;4244;48.684;9.028;2023-04-20T02:04:42;7.30;;;5.87;;
8413;SDS011;4244;48.684;9.028;2023-04-20T02:07:07;6.00;;;5.40;;
8413;SDS011;4244;48.684;9.028;2023-04-20T02:09:33;6.97;;;6.30;;
8413;SDS011;4244;48.684;9.028;2023-04-20T02:11:59;7.30;;;6.60;;
8413;SDS011;4244;48.684;9.028;2023-04-20T02:14:26;6.63;;;5.93;;
8413;SDS011;4244;48.684;9.028;2023-04-20T02:16:51;6.20;;;5.60;;
8413;SDS011;4244;48.684;9.028;2023-04-20T02:19:17;7.87;;;6.33;;
8413;SDS011;4244;48.684;9.028;2023-04-20T02:21:43;6.70;;;6.10;;
8413;SDS011;4244;48.684;9.028;2023-04-20T02:24:08;8.53;;;6.40;;
8413;SDS011;4244;48.684;9.028;2023-04-20T02:26:34;7.13;;;5.67;;
8413;SDS011;4244;48.684;9.028;2023-04-20T02:28:59;6.67;;;5.97;;
8413;SDS011;4244;48.684;9.028;2023-04-20T02:31:25;7.30;;;5.43;;
8413;SDS011;4244;48.684;9.028;2023-04-20T02:33:51;8.40;;;6.23;;
8413;SDS011;4244;48.684;9.028;2023-04-20T02:36:16;7.00;;;6.30;;
8413;SDS011;4244;48.684;9.028;2023-04-20T02:38:42;6.83;;;5.70;;
8413;SDS011;4244;48.684;9.028;2023-04-20T02:41:08;7.53;;;6.03;;
8413;SDS011;4244;48.684;9.028;2023-04-20T02:43:33;7.30;;;6.30;;
8413;SDS011;4244;48.684;9.028;2023-04-20T02:46:00;7.97;;;6.17;;
8413;SDS011;4244;48.684;9.028;2023-04-20T02:48:25;6.20;;;5.60;;
8413;SDS011;4244;48.684;9.028;2023-04-20T02:50:53;7.20;;;6.50;;
8413;SDS011;4244;48.684;9.028;2023-04-20T02:53:20;6.40;;;5.80;;
8413;SDS011;4244;48.684;9.028;2023-04-20T02:55:45;8.30;;;6.40;;
8413;SDS011;4244;48.684;9.028;2023-04-20T02:58:11;6.40;;;5.77;;
8413;SDS011;4244;48.684;9.028;2023-04-20T03:00:36;6.70;;;6.10;;
8413;SDS011;4244;48.684;9.028;2023-04-20T03:03:02;8.10;;;7.30;;
8413;SDS011;4244;48.684;9.028;2023-04-20T03:05:28;7.03;;;6.37;;
8413;SDS011;4244;48.684;9.028;2023-04-20T03:07:53;8.20;;;6.60;;
8413;SDS011;4244;48.684;9.028;2023-04-20T03:10:20;7.47;;;6.73;;
8413;SDS011;4244;48.684;9.028;2023-04-20T03:12:46;7.23;;;6.23;;
8413;SDS011;4244;48.684;9.028;2023-04-20T03:15:11;7.43;;;6.63;;
8413;SDS011;4244;48.684;9.028;2023-04-20T03:17:37;6.73;;;6.03;;
8413;SDS011;4244;48.684;9.028;2023-04-20T03:20:03;6.63;;;6.03;;
8413;SDS011;4244;48.684;9.028;2023-04-20T03:22:29;8.70;;;6.60;;
8413;SDS011;4244;48.684;9.028;2023-04-20T03:24:54;7.10;;;6.43;;
8413;SDS011;4244;48.684;9.028;2023-04-20T03:27:20;9.00;;;6.67;;
8413;SDS011;4244;48.684;9.028;2023-04-20T03:29:45;7.40;;;6.70;;
8413;SDS011;4244;48.684;9.028;2023-04-20T03:32:12;7.57;;;6.87;;
8413;SDS011;4244;48.684;9.028;2023-04-20T03:34:38;9.17;;;7.03;;
8413;SDS011;4244;48.684;9.028;2023-04-20T03:37:03;12.93;;;8.30;;
8413;SDS011;4244;48.684;9.028;2023-04-20T03:39:29;9.50;;;7.57;;
8413;SDS011;4244;48.684;9.028;2023-04-20T03:41:55;9.63;;;8.63;;
8413;SDS011;4244;48.684;9.028;2023-04-20T03:44:21;8.33;;;7.47;;
8413;SDS011;4244;48.684;9.028;2023-04-20T03:46:47;8.37;;;7.50;;
8413;SDS011;4244;48.684;9.028;2023-04-20T03:49:12;7.93;;;7.13;;
8413;SDS011;4244;48.684;9.028;2023-04-20T03:51:38;8.30;;;7.20;;
8413;SDS011;4244;48.684;9.028;2023-04-20T03:54:03;8.13;;;7.10;;
8413;SDS011;4244;48.684;9.028;2023-04-20T03:56:30;9.33;;;7.00;;
8413;SDS011;4244;48.684;9.028;2023-04-20T03:58:56;8.20;;;7.00;;
8413;SDS011;4244;48.684;9.028;2023-04-20T04:01:21;7.20;;;6.50;;
8413;SDS011;4244;48.684;9.028;2023-04-20T04:03:47;8.57;;;7.47;;
8413;SDS011;4244;48.684;9.028;2023-04-20T04:06:12;8.77;;;7.87;;
8413;SDS011;4244;48.684;9.028;2023-04-20T04:08:38;8.10;;;6.90;;
8413;SDS011;4244;48.684;9.028;2023-04-20T04:11:04;7.60;;;6.90;;
8413;SDS011;4244;48.684;9.028;2023-04-20T04:13:30;10.40;;;9.30;;
8413;SDS011;4244;48.684;9.028;2023-04-20T04:15:56;8.73;;;7.93;;
8413;SDS011;4244;48.684;9.028;2023-04-20T04:18:21;8.37;;;7.63;;
8413;SDS011;4244;48.684;9.028;2023-04-20T04:20:47;8.57;;;7.77;;
8413;SDS011;4244;48.684;9.028;2023-04-20T04:23:12;9.40;;;7.83;;
8413;SDS011;4244;48.684;9.028;2023-04-20T04:25:38;8.87;;;7.13;;
8413;SDS011;4244;48.684;9.028;2023-04-20T04:28:04;8.63;;;7.83;;
8413;SDS011;4244;48.684;9.028;2023-04-20T04:30:31;8.97;;;7.60;;
8413;SDS011;4244;48.684;9.028;2023-04-20T04:32:57;9.67;;;8.33;;
8413;SDS011;4244;48.684;9.028;2023-04-20T04:35:23;8.53;;;7.73;;
8413;SDS011;4244;48.684;9.028;2023-04-20T04:37:49;9.50;;;8.50;;
8413;SDS011;4244;48.684;9.028;2023-04-20T04:40:16;10.87;;;8.50;;
8413;SDS011;4244;48.684;9.028;2023-04-20T04:42:42;12.53;;;8.00;;
8413;SDS011;4244;48.684;9.028;2023-04-20T04:45:09;13.73;;;8.73;;
8413;SDS011;4244;48.684;9.028;2023-04-20T04:47:35;9.20;;;7.73;;
8413;SDS011;4244;48.684;9.028;2023-04-20T04:50:02;8.57;;;7.70;;
8413;SDS011;4244;48.684;9.028;2023-04-20T04:52:28;9.03;;;7.63;;
8413;SDS011;4244;48.684;9.028;2023-04-20T04:54:53;9.60;;;8.70;;
8413;SDS011;4244;48.684;9.028;2023-04-20T04:57:19;9.10;;;8.20;;
8413;SDS011;4244;48.684;9.028;2023-04-20T04:59:45;9.43;;;8.53;;
8413;SDS011;4244;48.684;9.028;2023-04-20T05:02:10;9.80;;;8.20;;
8413;SDS011;4244;48.684;9.028;2023-04-20T05:04:36;9.00;;;8.03;;
8413;SDS011;4244;48.684;9.028;2023-04-20T05:07:01;9.17;;;8.07;;
8413;SDS011;4244;48.684;9.028;2023-04-20T05:09:27;11.13;;;8.10;;
8413;SDS011;4244;48.684;9.028;2023-04-20T05:11:57;9.03;;;8.13;;
8413;SDS011;4244;48.684;9.028;2023-04-20T05:14:27;9.10;;;8.20;;
8413;SDS011;4244;48.684;9.028;2023-04-20T05:16:57;8.80;;;8.00;;
8413;SDS011;4244;48.684;9.028;2023-04-20T05:19:23;9.13;;;8.20;;
8413;SDS011;4244;48.684;9.028;2023-04-20T05:21:49;9.97;;;8.93;;
8413;SDS011;4244;48.684;9.028;2023-04-20T05:24:16;10.37;;;8.83;;
8413;SDS011;4244;48.684;9.028;2023-04-20T05:26:44;9.50;;;8.07;;
8413;SDS011;4244;48.684;9.028;2023-04-20T05:29:10;13.07;;;9.77;;
8413;SDS011;4244;48.684;9.028;2023-04-20T05:31:37;9.60;;;8.37;;
8413;SDS011;4244;48.684;9.028;2023-04-20T05:34:03;10.17;;;9.00;;
8413;SDS011;4244;48.684;9.028;2023-04-20T05:36:28;14.27;;;9.60;;
8413;SDS011;4244;48.684;9.028;2023-04-20T05:38:54;10.07;;;8.97;;
8413;SDS011;4244;48.684;9.028;2023-04-20T05:41:20;9.47;;;8.57;;
8413;SDS011;4244;48.684;9.028;2023-04-20T05:43:51;10.83;;;9.67;;
8413;SDS011;4244;48.684;9.028;2023-04-20T05:46:17;11.10;;;9.83;;
8413;SDS011;4244;48.684;9.028;2023-04-20T05:48:42;9.13;;;8.23;;
8413;SDS011;4244;48.684;9.028;2023-04-20T05:51:08;10.40;;;9.30;;
8413;SDS011;4244;48.684;9.028;2023-04-20T05:53:34;10.83;;;8.97;;
8413;SDS011;4244;48.684;9.028;2023-04-20T05:55:59;10.77;;;9.67;;
8413;SDS011;4244;48.684;9.028;2023-04-20T05:58:25;11.13;;;10.03;;
8413;SDS011;4244;48.684;9.028;2023-04-20T06:00:51;10.77;;;9.77;;
8413;SDS011;4244;48.684;9.028;2023-04-20T06:03:17;15.40;;;8.93;;
8413;SDS011;4244;48.684;9.028;2023-04-20T06:05:43;8.73;;;7.93;;
8413;SDS011;4244;48.684;9.028;2023-04-20T06:08:08;9.43;;;8.50;;
8413;SDS011;4244;48.684;9.028;2023-04-20T06:10:34;14.13;;;10.10;;
8413;SDS011;4244;48.684;9.028;2023-04-20T06:12:59;9.47;;;8.47;;
8413;SDS011;4244;48.684;9.028;2023-04-20T06:15:25;8.87;;;8.07;;
8413;SDS011;4244;48.684;9.028;2023-04-20T06:17:51;9.30;;;8.40;;
8413;SDS011;4244;48.684;9.028;2023-04-20T06:20:16;9.03;;;8.13;;
8413;SDS011;4244;48.684;9.028;2023-04-20T06:22:43;10.13;;;8.80;;
8413;SDS011;4244;48.684;9.028;2023-04-20T06:25:09;8.50;;;7.43;;
8413;SDS011;4244;48.684;9.028;2023-04-20T06:27:35;9.40;;;8.43;;
8413;SDS011;4244;48.684;9.028;2023-04-20T06:30:01;8.60;;;7.60;;
8413;SDS011;4244;48.684;9.028;2023-04-20T06:32:28;7.67;;;6.97;;
8413;SDS011;4244;48.684;9.028;2023-04-20T06:34:53;8.53;;;7.73;;
8413;SDS011;4244;48.684;9.028;2023-04-20T06:37:19;9.03;;;7.90;;
8413;SDS011;4244;48.684;9.028;2023-04-20T06:39:44;10.67;;;8.53;;
8413;SDS011;4244;48.684;9.028;2023-04-20T06:42:10;11.50;;;8.80;;
8413;SDS011;4244;48.684;9.028;2023-04-20T06:44:36;13.63;;;8.37;;
8413;SDS011;4244;48.684;9.028;2023-04-20T06:47:01;9.80;;;8.80;;
8413;SDS011;4244;48.684;9.028;2023-04-20T06:49:27;11.40;;;8.87;;
8413;SDS011;4244;48.684;9.028;2023-04-20T06:51:53;9.20;;;8.30;;
8413;SDS011;4244;48.684;9.028;2023-04-20T06:54:18;11.23;;;10.13;;
8413;SDS011;4244;48.684;9.028;2023-04-20T06:56:44;9.97;;;9.03;;
8413;SDS011;4244;48.684;9.028;2023-04-20T06:59:09;10.00;;;9.00;;
8413;SDS011;4244;48.684;9.028;2023-04-20T07:01:35;12.83;;;9.13;;
8413;SDS011;4244;48.684;9.028;2023-04-20T07:04:01;10.60;;;9.60;;
8413;SDS011;4244;48.684;9.028;2023-04-20T07:06:27;9.10;;;8.20;;
8413;SDS011;4244;48.684;9.028;2023-04-20T07:08:53;13.00;;;9.07;;
8413;SDS011;4244;48.684;9.028;2023-04-20T07:11:18;9.33;;;8.43;;
8413;SDS011;4244;48.684;9.028;2023-04-20T07:13:44;10.30;;;9.30;;
8413;SDS011;4244;48.684;9.028;2023-04-20T07:16:10;9.83;;;8.83;;
8413;SDS011;4244;48.684;9.028;2023-04-20T07:18:35;14.43;;;9.07;;
8413;SDS011;4244;48.684;9.028;2023-04-20T07:21:01;9.67;;;8.60;;
8413;SDS011;4244;48.684;9.028;2023-04-20T07:23:26;10.60;;;8.27;;
8413;SDS011;4244;48.684;9.028;2023-04-20T07:25:53;9.73;;;8.73;;
8413;SDS011;4244;48.684;9.028;2023-04-20T07:28:19;12.50;;;9.10;;
8413;SDS011;4244;48.684;9.028;2023-04-20T07:30:45;41.07;;;9.40;;
8413;SDS011;4244;48.684;9.028;2023-04-20T07:33:11;11.20;;;8.70;;
8413;SDS011;4244;48.684;9.028;2023-04-20T07:35:36;6.27;;;5.67;;
8413;SDS011;4244;48.684;9.028;2023-04-20T07:38:02;8.70;;;7.67;;
8413;SDS011;4244;48.684;9.028;2023-04-20T07:40:27;10.20;;;9.23;;
8413;SDS011;4244;48.684;9.028;2023-04-20T07:42:53;10.23;;;8.53;;
8413;SDS011;4244;48.684;9.028;2023-04-20T07:45:18;10.40;;;9.40;;
8413;SDS011;4244;48.684;9.028;2023-04-20T07:47:45;10.00;;;9.00;;
8413;SDS011;4244;48.684;9.028;2023-04-20T07:50:15;10.30;;;9.30;;
8413;SDS011;4244;48.684;9.028;2023-04-20T07:52:40;10.33;;;9.33;;
8413;SDS011;4244;48.684;9.028;2023-04-20T07:55:08;10.40;;;9.30;;
8413;SDS011;4244;48.684;9.028;2023-04-20T07:57:38;11.00;;;10.00;;
8413;SDS011;4244;48.684;9.028;2023-04-20T08:00:04;11.83;;;10.37;;
8413;SDS011;4244;48.684;9.028;2023-04-20T08:02:31;10.17;;;9.27;;
8413;SDS011;4244;48.684;9.028;2023-04-20T08:04:57;10.27;;;9.40;;
8413;SDS011;4244;48.684;9.028;2023-04-20T08:07:22;11.83;;;10.73;;
8413;SDS011;4244;48.684;9.028;2023-04-20T08:09:48;12.07;;;10.67;;
8413;SDS011;4244;48.684;9.028;2023-04-20T08:12:14;12.30;;;11.10;;
8413;SDS011;4244;48.684;9.028;2023-04-20T08:14:40;11.77;;;10.57;;
8413;SDS011;4244;48.684;9.028;2023-04-20T08:17:06;11.57;;;10.40;;
8413;SDS011;4244;48.684;9.028;2023-04-20T08:19:32;10.73;;;9.73;;
8413;SDS011;4244;48.684;9.028;2023-04-20T08:21:57;12.03;;;10.83;;
8413;SDS011;4244;48.684;9.028;2023-04-20T08:24:23;11.77;;;10.57;;
8413;SDS011;4244;48.684;9.028;2023-04-20T08:26:49;10.83;;;9.73;;
8413;SDS011;4244;48.684;9.028;2023-04-20T08:29:15;12.40;;;10.80;;
8413;SDS011;4244;48.684;9.028;2023-04-20T08:31:41;13.43;;;12.03;;
8413;SDS011;4244;48.684;9.028;2023-04-20T08:34:06;15.03;;;11.47;;
8413;SDS011;4244;48.684;9.028;2023-04-20T08:36:32;11.53;;;10.43;;
8413;SDS011;4244;48.684;9.028;2023-04-20T08:39:08;13.63;;;11.83;;
8413;SDS011;4244;48.684;9.028;2023-04-20T08:41:35;14.13;;;12.23;;
8413;SDS011;4244;48.684;9.028;2023-04-20T08:44:01;13.33;;;11.93;;
8413;SDS011;4244;48.684;9.028;2023-04-20T08:46:26;12.57;;;11.27;;
8413;SDS011;4244;48.684;9.028;2023-04-20T08:48:52;13.47;;;12.07;;
8413;SDS011;4244;48.684;9.028;2023-04-20T08:51:21;12.50;;;11.20;;
8413;SDS011;4244;48.684;9.028;2023-04-20T08:53:48;13.77;;;12.20;;
8413;SDS011;4244;48.684;9.028;2023-04-20T08:56:14;13.43;;;11.07;;
8413;SDS011;4244;48.684;9.028;2023-04-20T08:58:39;13.73;;;12.33;;
8413;SDS011;4244;48.684;9.028;2023-04-20T09:01:10;14.17;;;12.67;;
8413;SDS011;4244;48.684;9.028;2023-04-20T09:03:36;13.70;;;11.97;;
8413;SDS011;4244;48.684;9.028;2023-04-20T09:06:12;13.83;;;12.40;;
8413;SDS011;4244;48.684;9.028;2023-04-20T09:08:39;12.23;;;10.93;;
8413;SDS011;4244;48.684;9.028;2023-04-20T09:11:06;14.30;;;12.97;;
8413;SDS011;4244;48.684;9.028;2023-04-20T09:13:32;13.63;;;12.40;;
8413;SDS011;4244;48.684;9.028;2023-04-20T09:16:08;12.97;;;11.77;;
8413;SDS011;4244;48.684;9.028;2023-04-20T09:18:35;12.97;;;11.77;;
8413;SDS011;4244;48.684;9.028;2023-04-20T09:21:09;13.10;;;11.80;;
8413;SDS011;4244;48.684;9.028;2023-04-20T09:23:35;12.40;;;11.20;;
8413;SDS011;4244;48.684;9.028;2023-04-20T09:26:00;13.40;;;10.27;;
8413;SDS011;4244;48.684;9.028;2023-04-20T09:28:36;12.83;;;11.60;;
8413;SDS011;4244;48.684;9.028;2023-04-20T09:31:05;12.40;;;11.10;;
8413;SDS011;4244;48.684;9.028;2023-04-20T09:33:54;12.10;;;10.43;;
8413;SDS011;4244;48.684;9.028;2023-04-20T09:36:23;11.87;;;10.67;;
8413;SDS011;4244;48.684;9.028;2023-04-20T09:41:37;10.80;;;9.77;;
8413;SDS011;4244;48.684;9.028;2023-04-20T09:44:04;12.40;;;10.50;;
8413;SDS011;4244;48.684;9.028;2023-04-20T09:46:31;10.90;;;9.90;;
8413;SDS011;4244;48.684;9.028;2023-04-20T09:48:58;14.53;;;10.17;;
8413;SDS011;4244;48.684;9.028;2023-04-20T09:51:26;10.53;;;9.40;;
8413;SDS011;4244;48.684;9.028;2023-04-20T09:53:55;10.60;;;9.47;;
8413;SDS011;4244;48.684;9.028;2023-04-20T09:56:22;11.80;;;10.63;;
8413;SDS011;4244;48.684;9.028;2023-04-20T09:58:48;10.77;;;9.67;;
8413;SDS011;4244;48.684;9.028;2023-04-20T10:01:15;10.57;;;9.57;;
8413;SDS011;4244;48.684;9.028;2023-04-20T10:03:41;11.37;;;10.20;;
8413;SDS011;4244;48.684;9.028;2023-04-20T10:06:17;10.60;;;9.57;;
8413;SDS011;4244;48.684;9.028;2023-04-20T10:08:45;11.50;;;10.43;;
8413;SDS011;4244;48.684;9.028;2023-04-20T10:11:23;11.57;;;10.47;;
8413;SDS011;4244;48.684;9.028;2023-04-20T10:13:49;11.43;;;10.30;;
8413;SDS011;4244;48.684;9.028;2023-04-20T10:16:18;11.27;;;10.27;;
8413;SDS011;4244;48.684;9.028;2023-04-20T10:18:54;11.93;;;10.73;;
8413;SDS011;4244;48.684;9.028;2023-04-20T10:21:24;11.73;;;10.60;;
8413;SDS011;4244;48.684;9.028;2023-04-20T10:23:51;11.90;;;10.70;;
8413;SDS011;4244;48.684;9.028;2023-04-20T10:26:18;12.40;;;10.97;;
8413;SDS011;4244;48.684;9.028;2023-04-20T10:28:44;12.90;;;11.70;;
8413;SDS011;4244;48.684;9.028;2023-04-20T10:31:10;10.93;;;9.93;;
8413;SDS011;4244;48.684;9.028;2023-04-20T10:33:54;12.37;;;11.00;;
8413;SDS011;4244;48.684;9.028;2023-04-20T10:36:33;14.10;;;11.67;;
8413;SDS011;4244;48.684;9.028;2023-04-20T10:39:11;11.77;;;10.60;;
8413;SDS011;4244;48.684;9.028;2023-04-20T10:44:45;12.93;;;10.70;;
8413;SDS011;4244;48.684;9.028;2023-04-20T10:47:15;11.10;;;10.10;;
8413;SDS011;4244;48.684;9.028;2023-04-20T10:49:42;11.27;;;10.17;;
8413;SDS011;4244;48.684;9.028;2023-04-20T10:52:08;12.50;;;10.50;;
8413;SDS011;4244;48.684;9.028;2023-04-20T10:54:37;12.10;;;11.00;;
8413;SDS011;4244;48.684;9.028;2023-04-20T10:57:04;12.07;;;10.70;;
8413;SDS011;4244;48.684;9.028;2023-04-20T10:59:30;10.63;;;9.60;;
8413;SDS011;4244;48.684;9.028;2023-04-20T11:01:56;10.70;;;9.60;;
8413;SDS011;4244;48.684;9.028;2023-04-20T11:04:28;9.87;;;8.80;;
8413;SDS011;4244;48.684;9.028;2023-04-20T11:07:02;9.07;;;8.27;;
8413;SDS011;4244;48.684;9.028;2023-04-20T11:09:31;9.07;;;8.17;;
8413;SDS011;4244;48.684;9.028;2023-04-20T11:11:58;9.00;;;8.10;;
8413;SDS011;4244;48.684;9.028;2023-04-20T11:14:36;9.63;;;8.63;;
8413;SDS011;4244;48.684;9.028;2023-04-20T11:17:04;9.33;;;8.37;;
8413;SDS011;4244;48.684;9.028;2023-04-20T11:19:31;9.60;;;8.70;;
8413;SDS011;4244;48.684;9.028;2023-04-20T11:21:58;10.30;;;9.33;;
8413;SDS011;4244;48.684;9.028;2023-04-20T11:24:27;9.30;;;8.50;;
8413;SDS011;4244;48.684;9.028;2023-04-20T11:26:53;9.47;;;8.50;;
8413;SDS011;4244;48.684;9.028;2023-04-20T11:31:59;9.50;;;8.10;;
8413;SDS011;4244;48.684;9.028;2023-04-20T11:34:28;7.33;;;6.63;;
8413;SDS011;4244;48.684;9.028;2023-04-20T11:36:53;7.90;;;7.10;;
8413;SDS011;4244;48.684;9.028;2023-04-20T11:39:24;7.90;;;7.20;;
8413;SDS011;4244;48.684;9.028;2023-04-20T11:41:50;9.40;;;8.60;;
8413;SDS011;4244;48.684;9.028;2023-04-20T11:44:17;8.93;;;8.13;;
8413;SDS011;4244;48.684;9.028;2023-04-20T11:46:45;8.97;;;8.17;;
8413;SDS011;4244;48.684;9.028;2023-04-20T11:49:12;8.20;;;7.40;;
8413;SDS011;4244;48.684;9.028;2023-04-20T11:51:40;7.80;;;7.17;;
8413;SDS011;4244;48.684;9.028;2023-04-20T11:54:07;9.40;;;8.50;;
8413;SDS011;4244;48.684;9.028;2023-04-20T11:56:33;8.97;;;8.07;;
8413;SDS011;4244;48.684;9.028;2023-04-20T11:58:58;9.20;;;8.40;;
8413;SDS011;4244;48.684;9.028;2023-04-20T12:01:24;8.30;;;7.60;;
8413;SDS011;4244;48.684;9.028;2023-04-20T12:03:50;8.07;;;7.33;;
8413;SDS011;4244;48.684;9.028;2023-04-20T12:06:15;7.77;;;7.07;;
8413;SDS011;4244;48.684;9.028;2023-04-20T12:08:41;8.30;;;7.60;;
8413;SDS011;4244;48.684;9.028;2023-04-20T12:11:07;7.97;;;7.20;;
8413;SDS011;4244;48.684;9.028;2023-04-20T12:13:33;8.97;;;8.07;;
8413;SDS011;4244;48.684;9.028;2023-04-20T12:15:58;9.53;;;8.63;;
8413;SDS011;4244;48.684;9.028;2023-04-20T12:18:24;13.03;;;10.80;;
8413;SDS011;4244;48.684;9.028;2023-04-20T12:20:50;10.80;;;9.70;;
8413;SDS011;4244;48.684;9.028;2023-04-20T12:23:15;13.70;;;11.30;;
8413;SDS011;4244;48.684;9.028;2023-04-20T12:25:41;15.77;;;12.20;;
8413;SDS011;4244;48.684;9.028;2023-04-20T12:28:07;15.27;;;11.40;;
8413;SDS011;4244;48.684;9.028;2023-04-20T12:30:33;11.83;;;10.30;;
8413;SDS011;4244;48.684;9.028;2023-04-20T12:33:01;13.23;;;11.90;;
8413;SDS011;4244;48.684;9.028;2023-04-20T12:35:27;11.37;;;10.27;;
8413;SDS011;4244;48.684;9.028;2023-04-20T12:37:53;12.20;;;11.00;;
8413;SDS011;4244;48.684;9.028;2023-04-20T12:40:18;12.40;;;11.20;;
8413;SDS011;4244;48.684;9.028;2023-04-20T12:42:44;16.40;;;14.57;;
8413;SDS011;4244;48.684;9.028;2023-04-20T12:45:10;21.03;;;15.50;;
8413;SDS011;4244;48.684;9.028;2023-04-20T12:47:35;14.57;;;12.10;;
8413;SDS011;4244;48.684;9.028;2023-04-20T12:50:01;12.97;;;11.67;;
8413;SDS011;4244;48.684;9.028;2023-04-20T12:52:27;15.30;;;13.80;;
8413;SDS011;4244;48.684;9.028;2023-04-20T12:54:53;12.97;;;11.70;;
8413;SDS011;4244;48.684;9.028;2023-04-20T12:57:18;11.50;;;10.40;;
8413;SDS011;4244;48.684;9.028;2023-04-20T12:59:44;12.60;;;11.40;;
8413;SDS011;4244;48.684;9.028;2023-04-20T13:02:12;12.20;;;11.00;;
8413;SDS011;4244;48.684;9.028;2023-04-20T13:04:38;13.53;;;12.27;;
8413;SDS011;4244;48.684;9.028;2023-04-20T13:07:04;11.80;;;10.70;;
8413;SDS011;4244;48.684;9.028;2023-04-20T13:09:30;12.30;;;11.10;;
8413;SDS011;4244;48.684;9.028;2023-04-20T13:11:56;13.83;;;12.50;;
8413;SDS011;4244;48.684;9.028;2023-04-20T13:14:22;13.03;;;11.73;;
8413;SDS011;4244;48.684;9.028;2023-04-20T13:16:47;12.87;;;11.67;;
8413;SDS011;4244;48.684;9.028;2023-04-20T13:19:13;13.27;;;11.97;;
8413;SDS011;4244;48.684;9.028;2023-04-20T13:21:39;14.60;;;13.13;;
8413;SDS011;4244;48.684;9.028;2023-04-20T13:24:05;12.90;;;11.80;;
8413;SDS011;4244;48.684;9.028;2023-04-20T13:26:30;16.77;;;15.27;;
8413;SDS011;4244;48.684;9.028;2023-04-20T13:28:57;15.33;;;13.93;;
8413;SDS011;4244;48.684;9.028;2023-04-20T13:31:23;13.97;;;12.60;;
8413;SDS011;4244;48.684;9.028;2023-04-20T13:33:49;15.03;;;13.73;;
8413;SDS011;4244;48.684;9.028;2023-04-20T13:36:19;12.73;;;11.63;;
8413;SDS011;4244;48.684;9.028;2023-04-20T13:38:45;22.30;;;20.50;;
8413;SDS011;4244;48.684;9.028;2023-04-20T13:41:12;19.57;;;17.80;;
8413;SDS011;4244;48.684;9.028;2023-04-20T13:43:41;13.20;;;12.07;;
8413;SDS011;4244;48.684;9.028;2023-04-20T13:46:07;16.17;;;14.77;;
8413;SDS011;4244;48.684;9.028;2023-04-20T13:48:33;17.27;;;15.77;;
8413;SDS011;4244;48.684;9.028;2023-04-20T13:50:59;14.63;;;13.43;;
8413;SDS011;4244;48.684;9.028;2023-04-20T13:53:24;12.67;;;11.57;;
8413;SDS011;4244;48.684;9.028;2023-04-20T13:55:50;15.87;;;14.37;;
8413;SDS011;4244;48.684;9.028;2023-04-20T13:58:15;13.00;;;11.80;;
8413;SDS011;4244;48.684;9.028;2023-04-20T14:00:41;13.90;;;10.67;;
8413;SDS011;4244;48.684;9.028;2023-04-20T14:03:10;14.43;;;13.13;;
8413;SDS011;4244;48.684;9.028;2023-04-20T14:05:37;13.40;;;12.30;;
8413;SDS011;4244;48.684;9.028;2023-04-20T14:08:03;12.20;;;11.03;;
8413;SDS011;4244;48.684;9.028;2023-04-20T14:10:30;12.17;;;11.17;;
8413;SDS011;4244;48.684;9.028;2023-04-20T14:12:56;12.73;;;11.47;;
8413;SDS011;4244;48.684;9.028;2023-04-20T14:15:22;11.83;;;10.73;;
8413;SDS011;4244;48.684;9.028;2023-04-20T14:17:48;11.87;;;10.77;;
8413;SDS011;4244;48.684;9.028;2023-04-20T14:20:14;11.27;;;10.17;;
8413;SDS011;4244;48.684;9.028;2023-04-20T14:22:39;11.67;;;10.57;;
8413;SDS011;4244;48.684;9.028;2023-04-20T14:25:07;12.10;;;11.00;;
8413;SDS011;4244;48.684;9.028;2023-04-20T14:27:33;11.90;;;10.03;;
8413;SDS011;4244;48.684;9.028;2023-04-20T14:29:59;10.30;;;9.40;;
8413;SDS011;4244;48.684;9.028;2023-04-20T14:32:25;11.67;;;10.57;;
8413;SDS011;4244;48.684;9.028;2023-04-20T14:34:51;12.93;;;11.63;;
8413;SDS011;4244;48.684;9.028;2023-04-20T14:37:16;12.70;;;11.50;;
8413;SDS011;4244;48.684;9.028;2023-04-20T14:39:42;10.43;;;9.53;;
8413;SDS011;4244;48.684;9.028;2023-04-20T14:42:08;11.00;;;10.00;;
8413;SDS011;4244;48.684;9.028;2023-04-20T14:44:33;12.13;;;11.03;;
8413;SDS011;4244;48.684;9.028;2023-04-20T14:46:59;10.93;;;9.70;;
8413;SDS011;4244;48.684;9.028;2023-04-20T14:49:25;11.90;;;10.90;;
8413;SDS011;4244;48.684;9.028;2023-04-20T14:51:51;8.00;;;5.00;;
8413;SDS011;4244;48.684;9.028;2023-04-20T14:54:16;8.20;;;7.50;;
8413;SDS011;4244;48.684;9.028;2023-04-20T14:56:42;9.33;;;8.40;;
8413;SDS011;4244;48.684;9.028;2023-04-20T14:59:07;8.77;;;7.97;;
8413;SDS011;4244;48.684;9.028;2023-04-20T15:01:33;7.93;;;7.17;;
8413;SDS011;4244;48.684;9.028;2023-04-20T15:03:59;6.57;;;5.97;;
8413;SDS011;4244;48.684;9.028;2023-04-20T15:06:25;6.50;;;5.90;;
8413;SDS011;4244;48.684;9.028;2023-04-20T15:08:53;6.27;;;5.77;;